createdAt,value
2023-10-28T00:00:39.212Z,2.42
2023-10-28T00:03:07.081Z,2.30
2023-10-28T00:05:34.693Z,3.28
2023-10-28T00:08:03.010Z,3.92
2023-10-28T00:10:30.296Z,4.00
2023-10-28T00:12:57.528Z,3.25
2023-10-28T00:15:25.233Z,2.83
2023-10-28T00:17:52.361Z,4.28
2023-10-28T00:20:19.996Z,2.50
2023-10-28T00:22:47.970Z,2.50
2023-10-28T00:25:16.234Z,1.92
2023-10-28T00:27:44.197Z,3.05
2023-10-28T00:30:12.776Z,3.47
2023-10-28T00:32:39.911Z,4.72
2023-10-28T00:35:08.725Z,2.95
2023-10-28T00:37:36.461Z,0.63
2023-10-28T00:40:06.990Z,0.10
2023-10-28T00:42:36.758Z,0.08
2023-10-28T00:45:04.900Z,0.40
2023-10-28T00:47:32.059Z,0.17
2023-10-28T00:49:59.393Z,0.10
2023-10-28T00:52:27.544Z,0.17
2023-10-28T00:54:55.446Z,0.10
2023-10-28T00:57:23.328Z,0.00
2023-10-28T00:59:50.562Z,0.00
2023-10-28T01:02:18.950Z,0.00
2023-10-28T01:04:46.525Z,0.10
2023-10-28T01:07:13.652Z,0.00
2023-10-28T01:09:48.595Z,0.10
2023-10-28T01:12:16.581Z,0.10
2023-10-28T01:14:43.841Z,0.10
2023-10-28T01:17:14.526Z,0.10
2023-10-28T01:19:41.672Z,0.20
2023-10-28T01:22:09.126Z,0.20
2023-10-28T01:24:36.554Z,0.30
2023-10-28T01:27:04.892Z,0.30
2023-10-28T01:29:34.854Z,0.10
2023-10-28T01:32:04.942Z,0.10
2023-10-28T01:34:32.405Z,0.10
2023-10-28T01:37:00.488Z,0.00
2023-10-28T01:39:27.620Z,0.13
2023-10-28T01:41:54.773Z,0.10
2023-10-28T01:44:21.870Z,0.10
2023-10-28T01:46:49.425Z,0.10
2023-10-28T01:49:16.556Z,0.08
2023-10-28T01:51:44.869Z,0.00
2023-10-28T01:54:12.008Z,0.00
2023-10-28T01:56:39.395Z,0.30
2023-10-28T01:59:06.583Z,0.00
2023-10-28T02:01:35.883Z,0.00
2023-10-28T02:04:07.414Z,0.10
2023-10-28T02:06:34.578Z,0.20
2023-10-28T02:09:01.633Z,0.30
2023-10-28T02:11:29.845Z,0.20
2023-10-28T02:13:56.992Z,0.13
2023-10-28T02:16:24.693Z,0.20
2023-10-28T02:18:52.316Z,0.10
2023-10-28T02:21:21.449Z,0.10
2023-10-28T02:23:48.591Z,0.10
2023-10-28T02:26:18.025Z,0.10
2023-10-28T02:28:45.172Z,0.10
2023-10-28T02:31:13.072Z,0.13
2023-10-28T02:33:40.657Z,0.10
2023-10-28T02:36:09.427Z,0.00
2023-10-28T02:38:36.983Z,0.70
2023-10-28T02:41:07.077Z,0.00
2023-10-28T02:43:36.306Z,0.00
2023-10-28T02:46:04.360Z,0.00
2023-10-28T02:48:31.620Z,0.10
2023-10-28T02:51:06.665Z,0.30
2023-10-28T02:53:34.500Z,0.10
2023-10-28T02:56:05.355Z,0.10
2023-10-28T02:58:32.686Z,0.10
2023-10-28T03:01:07.662Z,0.10
2023-10-28T03:03:34.986Z,0.10
2023-10-28T03:06:02.670Z,0.10
2023-10-28T03:08:29.813Z,0.10
2023-10-28T03:10:56.981Z,0.08
2023-10-28T03:13:24.871Z,0.20
2023-10-28T03:15:52.189Z,0.00
2023-10-28T03:18:20.097Z,0.08
2023-10-28T03:20:47.308Z,0.10
2023-10-28T03:23:14.506Z,0.20
2023-10-28T03:25:41.900Z,0.40
2023-10-28T03:28:09.614Z,0.10
2023-10-28T03:30:37.219Z,0.15
2023-10-28T03:33:04.512Z,7.95
2023-10-28T03:35:31.690Z,0.10
2023-10-28T03:37:59.109Z,0.17
2023-10-28T03:40:26.339Z,0.00
2023-10-28T03:42:53.522Z,2.30
2023-10-28T03:45:21.310Z,0.00
2023-10-28T03:47:48.471Z,0.20
2023-10-28T03:50:15.690Z,0.10
2023-10-28T03:52:42.858Z,0.20
2023-10-28T03:55:10.210Z,0.20
2023-10-28T03:57:37.362Z,0.10
2023-10-28T04:00:04.917Z,0.10
2023-10-28T04:02:32.048Z,0.20
2023-10-28T04:04:59.224Z,0.60
2023-10-28T04:07:26.657Z,0.10
2023-10-28T04:09:54.094Z,0.00
2023-10-28T04:12:21.195Z,0.10
2023-10-28T04:14:48.381Z,0.10
2023-10-28T04:17:15.521Z,0.20
2023-10-28T04:19:42.755Z,0.00
2023-10-28T04:22:09.956Z,0.20
2023-10-28T04:24:37.171Z,0.10
2023-10-28T04:27:04.647Z,0.00
2023-10-28T04:29:33.766Z,0.00
2023-10-28T04:32:01.009Z,0.13
2023-10-28T04:34:40.262Z,1.90
2023-10-28T04:37:15.515Z,0.10
2023-10-28T04:39:42.651Z,0.10
2023-10-28T04:42:09.830Z,0.10
2023-10-28T04:44:37.148Z,0.10
2023-10-28T04:47:04.474Z,0.20
2023-10-28T04:49:31.719Z,0.10
2023-10-28T04:51:58.889Z,0.10
2023-10-28T04:54:26.059Z,0.20
2023-10-28T04:56:53.295Z,0.10
2023-10-28T04:59:20.392Z,0.10
2023-10-28T05:01:47.645Z,0.00
2023-10-28T05:04:14.839Z,0.00
2023-10-28T05:06:41.926Z,0.10
2023-10-28T05:09:09.111Z,0.00
2023-10-28T05:11:36.279Z,0.10
2023-10-28T05:14:03.482Z,0.10
2023-10-28T05:16:30.622Z,0.10
2023-10-28T05:18:57.798Z,0.10
2023-10-28T05:21:25.364Z,0.10
2023-10-28T05:23:53.301Z,0.20
2023-10-28T05:26:20.504Z,0.20
2023-10-28T05:28:47.833Z,0.10
2023-10-28T05:31:15.433Z,0.00
2023-10-28T05:33:42.538Z,0.00
2023-10-28T05:36:09.717Z,0.20
2023-10-28T05:38:36.978Z,0.10
2023-10-28T05:41:04.338Z,0.00
2023-10-28T05:43:32.176Z,0.23
2023-10-28T05:46:00.055Z,0.10
2023-10-28T05:48:27.879Z,0.20
2023-10-28T05:50:57.058Z,0.10
2023-10-28T05:53:24.994Z,0.10
2023-10-28T05:55:53.497Z,0.20
2023-10-28T05:58:21.215Z,0.10
2023-10-28T06:00:50.850Z,0.03
2023-10-28T06:03:18.057Z,0.05
2023-10-28T06:05:46.034Z,0.00
2023-10-28T06:08:14.874Z,0.00
2023-10-28T06:10:42.097Z,0.00
2023-10-28T06:13:09.939Z,0.10
2023-10-28T06:15:38.189Z,0.10
2023-10-28T06:18:05.355Z,0.32
2023-10-28T06:20:32.561Z,0.10
2023-10-28T06:22:59.805Z,0.10
2023-10-28T06:25:27.074Z,0.10
2023-10-28T06:27:54.292Z,0.10
2023-10-28T06:30:21.978Z,0.10
2023-10-28T06:32:49.167Z,0.10
2023-10-28T06:35:17.954Z,0.17
2023-10-28T06:37:45.188Z,0.08
2023-10-28T06:40:12.623Z,0.20
2023-10-28T06:42:39.820Z,0.10
2023-10-28T06:45:07.166Z,0.80
2023-10-28T06:47:36.169Z,0.30
2023-10-28T06:50:07.800Z,0.10
2023-10-28T06:52:35.360Z,0.10
2023-10-28T06:55:03.625Z,0.10
2023-10-28T06:57:31.920Z,0.00
2023-10-28T07:00:00.040Z,0.10
2023-10-28T07:02:27.641Z,0.10
2023-10-28T07:04:55.321Z,0.10
2023-10-28T07:07:24.315Z,0.40
2023-10-28T07:09:52.442Z,0.47
2023-10-28T07:12:20.022Z,0.00
2023-10-28T07:14:48.442Z,0.10
2023-10-28T07:17:15.656Z,0.20
2023-10-28T07:19:43.430Z,0.30
2023-10-28T07:22:10.624Z,0.20
2023-10-28T07:24:37.832Z,0.10
2023-10-28T07:27:06.018Z,0.10
2023-10-28T07:29:35.236Z,0.10
2023-10-28T07:32:04.855Z,0.30
2023-10-28T07:34:32.154Z,0.20
2023-10-28T07:37:01.185Z,0.30
2023-10-28T07:39:28.453Z,0.60
2023-10-28T07:41:55.559Z,0.20
2023-10-28T07:44:22.811Z,0.20
2023-10-28T07:46:50.377Z,0.10
2023-10-28T07:49:17.544Z,0.10
2023-10-28T07:51:44.698Z,0.23
2023-10-28T07:54:12.136Z,0.13
2023-10-28T07:56:39.399Z,0.28
2023-10-28T07:59:08.538Z,0.17
2023-10-28T08:01:35.777Z,2.28
2023-10-28T08:04:05.835Z,0.50
2023-10-28T08:06:35.262Z,0.20
2023-10-28T08:09:06.152Z,0.10
2023-10-28T08:11:33.760Z,0.57
2023-10-28T08:14:01.519Z,0.52
2023-10-28T08:16:29.169Z,0.10
2023-10-28T08:18:56.793Z,0.80
2023-10-28T08:21:25.988Z,0.40
2023-10-28T08:23:53.167Z,0.60
2023-10-28T08:26:22.009Z,0.50
2023-10-28T08:28:51.848Z,0.47
2023-10-28T08:31:19.221Z,0.35
2023-10-28T08:33:46.580Z,0.43
2023-10-28T08:36:13.895Z,4.00
2023-10-28T08:38:41.445Z,2.30
2023-10-28T08:41:09.549Z,3.83
2023-10-28T08:43:36.990Z,1.10
2023-10-28T08:46:05.720Z,0.50
2023-10-28T08:48:34.632Z,2.92
2023-10-28T08:51:02.104Z,3.10
2023-10-28T08:53:30.340Z,1.25
2023-10-28T08:56:04.132Z,0.70
2023-10-28T08:58:31.399Z,0.43
2023-10-28T09:01:00.839Z,1.25
2023-10-28T09:03:28.357Z,2.97
2023-10-28T09:05:55.927Z,3.37
2023-10-28T09:08:23.397Z,0.75
2023-10-28T09:10:50.855Z,1.08
2023-10-28T09:13:18.230Z,3.72
2023-10-28T09:15:45.607Z,4.25
2023-10-28T09:18:12.856Z,2.13
2023-10-28T09:20:41.272Z,1.70
2023-10-28T09:23:08.489Z,2.93
2023-10-28T09:25:37.614Z,2.90
2023-10-28T09:28:08.857Z,1.70
2023-10-28T09:30:51.661Z,1.90
2023-10-28T09:33:19.160Z,1.02
2023-10-28T09:35:47.114Z,3.83
2023-10-28T09:38:14.708Z,2.27
2023-10-28T09:40:41.948Z,2.90
2023-10-28T09:43:09.198Z,2.63
2023-10-28T09:45:37.555Z,2.83
2023-10-28T09:48:20.462Z,2.80
2023-10-28T09:50:51.629Z,3.17
2023-10-28T09:53:19.588Z,2.15
2023-10-28T09:55:50.332Z,3.22
2023-10-28T09:58:23.551Z,2.50
2023-10-28T10:00:53.008Z,2.10
2023-10-28T10:03:27.237Z,3.67
2023-10-28T10:05:55.096Z,2.30
2023-10-28T10:08:24.067Z,2.65
2023-10-28T10:10:51.982Z,3.50
2023-10-28T10:13:19.608Z,2.63
2023-10-28T10:15:55.653Z,2.63
2023-10-28T10:18:28.645Z,2.47
2023-10-28T10:21:05.681Z,2.53
2023-10-28T10:23:40.735Z,3.50
2023-10-28T10:26:08.230Z,1.65
2023-10-28T10:28:45.703Z,1.38
2023-10-28T10:31:13.490Z,3.97
2023-10-28T10:33:40.780Z,1.33
2023-10-28T10:36:28.329Z,1.23
2023-10-28T10:38:55.820Z,1.25
2023-10-28T10:41:30.852Z,3.10
2023-10-28T10:43:58.081Z,2.90
2023-10-28T10:46:25.264Z,3.30
2023-10-28T10:48:52.433Z,0.95
2023-10-28T10:51:21.114Z,2.30
2023-10-28T10:53:48.354Z,3.90
2023-10-28T10:56:22.883Z,1.58
2023-10-28T10:58:50.110Z,1.50
2023-10-28T11:01:17.352Z,2.28
2023-10-28T11:03:45.572Z,0.70
2023-10-28T11:06:13.666Z,2.78
2023-10-28T11:08:41.695Z,2.78
2023-10-28T11:11:08.911Z,2.30
2023-10-28T11:13:36.108Z,2.13
2023-10-28T11:16:03.647Z,1.27
2023-10-28T11:18:30.764Z,1.35
2023-10-28T11:20:58.900Z,2.03
2023-10-28T11:23:27.587Z,1.17
2023-10-28T11:25:56.223Z,1.52
2023-10-28T11:28:24.446Z,1.60
2023-10-28T11:30:52.864Z,1.50
2023-10-28T11:33:20.097Z,3.75
2023-10-28T11:35:52.008Z,2.28
2023-10-28T11:38:19.219Z,2.25
2023-10-28T11:40:46.432Z,1.13
2023-10-28T11:43:18.291Z,1.40
2023-10-28T11:45:45.418Z,1.90
2023-10-28T11:48:12.608Z,2.50
2023-10-28T11:50:40.970Z,3.05
2023-10-28T11:53:08.689Z,1.25
2023-10-28T11:55:35.991Z,2.05
2023-10-28T11:58:03.775Z,2.70
2023-10-28T12:00:30.942Z,1.88
2023-10-28T12:03:00.293Z,2.63
2023-10-28T12:05:27.506Z,3.78
2023-10-28T12:07:54.774Z,3.55
2023-10-28T12:10:21.913Z,3.80
2023-10-28T12:12:49.122Z,1.67
2023-10-28T12:15:16.352Z,2.88
2023-10-28T12:17:45.565Z,5.43
2023-10-28T12:20:15.794Z,2.70
2023-10-28T12:22:44.251Z,1.77
2023-10-28T12:25:14.069Z,2.33
2023-10-28T12:27:41.548Z,3.50
2023-10-28T12:30:09.399Z,3.70
2023-10-28T12:32:36.714Z,2.53
2023-10-28T12:35:03.972Z,2.95
2023-10-28T12:37:31.197Z,2.30
2023-10-28T12:39:58.395Z,2.45
2023-10-28T12:42:25.571Z,2.33
2023-10-28T12:44:52.928Z,2.72
2023-10-28T12:47:20.127Z,1.97
2023-10-28T12:49:48.105Z,6.10
2023-10-28T12:52:15.495Z,2.20
2023-10-28T12:54:43.585Z,4.00
2023-10-28T12:57:12.663Z,2.95
2023-10-28T12:59:39.953Z,1.63
2023-10-28T13:02:07.181Z,2.10
2023-10-28T13:04:35.189Z,2.30
2023-10-28T13:07:02.326Z,2.85
2023-10-28T13:09:29.514Z,3.50
2023-10-28T13:11:59.833Z,2.73
2023-10-28T13:14:28.540Z,2.92
2023-10-28T13:16:57.258Z,3.25
2023-10-28T13:19:24.507Z,3.35
2023-10-28T13:21:51.736Z,2.58
2023-10-28T13:24:20.531Z,2.87
2023-10-28T13:26:49.132Z,3.67
2023-10-28T13:29:18.060Z,5.00
2023-10-28T13:31:46.048Z,2.75
2023-10-28T13:34:13.222Z,3.88
2023-10-28T13:36:40.524Z,3.00
2023-10-28T13:39:08.549Z,3.37
2023-10-28T13:41:35.801Z,2.83
2023-10-28T13:44:03.556Z,3.83
2023-10-28T13:46:30.768Z,4.63
2023-10-28T13:48:57.974Z,3.42
2023-10-28T13:51:26.119Z,6.25
2023-10-28T13:53:53.284Z,2.50
2023-10-28T13:56:21.442Z,3.28
2023-10-28T13:58:48.687Z,2.80
2023-10-28T14:01:15.815Z,3.50
2023-10-28T14:03:43.126Z,2.70
2023-10-28T14:06:10.420Z,2.22
2023-10-28T14:08:37.666Z,4.53
2023-10-28T14:11:05.027Z,3.13
2023-10-28T14:13:32.485Z,3.30
2023-10-28T14:15:59.972Z,3.20
2023-10-28T14:18:27.201Z,4.30
2023-10-28T14:20:54.400Z,3.65
2023-10-28T14:23:22.240Z,4.00
2023-10-28T14:25:49.454Z,2.72
2023-10-28T14:28:16.636Z,4.07
2023-10-28T14:30:43.838Z,2.40
2023-10-28T14:33:11.049Z,4.72
2023-10-28T14:35:38.301Z,3.65
2023-10-28T14:38:05.522Z,2.92
2023-10-28T14:40:34.879Z,2.97
2023-10-28T14:43:02.825Z,4.33
2023-10-28T14:45:31.319Z,2.95
2023-10-28T14:47:59.432Z,7.90
2023-10-28T14:50:26.638Z,5.85
2023-10-28T14:52:54.672Z,5.90
2023-10-28T14:55:22.364Z,4.07
2023-10-28T14:58:02.561Z,2.00
2023-10-28T15:00:37.102Z,3.72
2023-10-28T15:03:05.751Z,4.13
2023-10-28T15:05:33.248Z,4.25
2023-10-28T15:08:00.461Z,2.58
2023-10-28T15:10:27.742Z,3.33
2023-10-28T15:12:54.884Z,6.47
2023-10-28T15:15:23.147Z,4.22
2023-10-28T15:17:51.001Z,5.20
2023-10-28T15:20:18.270Z,2.80
2023-10-28T15:22:46.309Z,3.17
2023-10-28T15:25:16.882Z,6.30
2023-10-28T15:27:44.140Z,7.95
2023-10-28T15:30:12.468Z,8.50
2023-10-28T15:32:40.685Z,6.97
2023-10-28T15:35:09.354Z,11.88
2023-10-28T15:37:36.596Z,14.32
2023-10-28T15:40:04.586Z,9.00
2023-10-28T15:42:31.701Z,5.18
2023-10-28T15:44:58.932Z,4.83
2023-10-28T15:47:26.105Z,3.92
2023-10-28T15:49:53.427Z,6.45
2023-10-28T15:52:20.638Z,4.55
2023-10-28T15:54:47.943Z,4.15
2023-10-28T15:57:15.303Z,5.68
2023-10-28T15:59:42.475Z,2.45
2023-10-28T16:02:11.183Z,3.17
2023-10-28T16:04:38.942Z,4.32
2023-10-28T16:07:06.996Z,5.75
2023-10-28T16:09:36.498Z,5.45
2023-10-28T16:12:05.351Z,6.43
2023-10-28T16:14:32.563Z,9.68
2023-10-28T16:16:59.738Z,7.90
2023-10-28T16:19:26.948Z,6.53
2023-10-28T16:21:54.161Z,6.35
2023-10-28T16:24:21.278Z,5.65
2023-10-28T16:26:48.944Z,6.25
2023-10-28T16:29:16.466Z,5.40
2023-10-28T16:31:43.839Z,6.63
2023-10-28T16:34:11.179Z,6.32
2023-10-28T16:36:38.388Z,11.20
2023-10-28T16:39:10.321Z,8.32
2023-10-28T16:41:38.291Z,7.83
2023-10-28T16:44:09.984Z,9.13
2023-10-28T16:46:37.896Z,4.35
2023-10-28T16:49:05.464Z,8.57
2023-10-28T16:51:32.622Z,17.05
2023-10-28T16:53:59.769Z,13.20
2023-10-28T16:56:27.101Z,10.60
2023-10-28T16:58:54.339Z,3.63
2023-10-28T17:01:21.535Z,3.88
2023-10-28T17:03:48.801Z,4.47
2023-10-28T17:06:16.043Z,5.20
2023-10-28T17:08:43.308Z,5.60
2023-10-28T17:11:10.626Z,5.80
2023-10-28T17:13:37.811Z,6.18
2023-10-28T17:16:05.497Z,6.18
2023-10-28T17:18:33.767Z,5.10
2023-10-28T17:21:05.597Z,5.63
2023-10-28T17:23:32.912Z,3.05
2023-10-28T17:26:00.050Z,6.03
2023-10-28T17:28:27.226Z,6.55
2023-10-28T17:30:56.517Z,6.32
2023-10-28T17:33:23.776Z,6.13
2023-10-28T17:35:51.811Z,6.70
2023-10-28T17:38:19.292Z,6.80
2023-10-28T17:40:46.476Z,7.10
2023-10-28T17:43:15.591Z,6.82
2023-10-28T17:45:42.961Z,8.50
2023-10-28T17:48:10.143Z,8.83
2023-10-28T17:50:37.473Z,9.07
2023-10-28T17:53:04.943Z,6.97
2023-10-28T17:55:32.070Z,6.82
2023-10-28T17:57:59.616Z,8.63
2023-10-28T18:00:26.769Z,7.45
2023-10-28T18:02:54.026Z,7.88
2023-10-28T18:05:21.306Z,8.85
2023-10-28T18:07:48.494Z,10.57
2023-10-28T18:10:15.911Z,11.05
2023-10-28T18:12:43.086Z,7.72
2023-10-28T18:15:10.541Z,10.18
2023-10-28T18:17:38.995Z,6.38
2023-10-28T18:20:06.700Z,6.20
2023-10-28T18:22:33.812Z,7.60
2023-10-28T18:25:03.032Z,7.93
2023-10-28T18:27:30.299Z,7.93
2023-10-28T18:29:57.648Z,9.65
2023-10-28T18:32:24.936Z,9.40
2023-10-28T18:34:57.393Z,8.48
2023-10-28T18:37:24.672Z,9.07
2023-10-28T18:39:52.003Z,7.45
2023-10-28T18:42:19.229Z,5.55
2023-10-28T18:44:46.593Z,5.30
2023-10-28T18:47:13.796Z,9.27
2023-10-28T18:49:40.983Z,5.82
2023-10-28T18:52:12.507Z,7.82
2023-10-28T18:54:40.628Z,6.70
2023-10-28T18:57:08.624Z,4.45
2023-10-28T18:59:36.003Z,8.40
2023-10-28T19:02:03.461Z,6.32
2023-10-28T19:04:34.648Z,7.60
2023-10-28T19:07:04.080Z,10.32
2023-10-28T19:09:31.168Z,7.05
2023-10-28T19:11:58.355Z,7.80
2023-10-28T19:14:25.761Z,5.53
2023-10-28T19:16:53.302Z,8.40
2023-10-28T19:19:20.733Z,8.32
2023-10-28T19:21:48.188Z,7.68
2023-10-28T19:24:15.403Z,7.53
2023-10-28T19:26:46.251Z,6.00
2023-10-28T19:29:13.586Z,7.70
2023-10-28T19:31:42.457Z,6.38
2023-10-28T19:34:11.244Z,4.15
2023-10-28T19:36:38.460Z,6.85
2023-10-28T19:39:05.676Z,7.97
2023-10-28T19:41:32.926Z,10.35
2023-10-28T19:44:00.242Z,8.68
2023-10-28T19:46:27.582Z,5.85
2023-10-28T19:48:56.054Z,7.40
2023-10-28T19:51:23.256Z,6.00
2023-10-28T19:53:50.953Z,7.07
2023-10-28T19:56:20.549Z,7.30
2023-10-28T19:58:49.998Z,7.63
2023-10-28T20:01:17.523Z,9.07
2023-10-28T20:03:47.104Z,7.55
2023-10-28T20:06:15.962Z,10.05
2023-10-28T20:08:43.221Z,6.68
2023-10-28T20:11:10.545Z,7.63
2023-10-28T20:13:39.157Z,6.50
2023-10-28T20:16:07.765Z,5.43
2023-10-28T20:18:35.201Z,7.72
2023-10-28T20:21:02.379Z,7.95
2023-10-28T20:23:29.700Z,5.95
2023-10-28T20:25:56.926Z,6.25
2023-10-28T20:28:25.043Z,5.43
2023-10-28T20:30:52.487Z,6.35
2023-10-28T20:33:20.811Z,8.02
2023-10-28T20:35:48.178Z,11.35
2023-10-28T20:38:15.531Z,9.25
2023-10-28T20:40:43.515Z,5.95
2023-10-28T20:43:10.825Z,5.90
2023-10-28T20:45:37.991Z,6.57
2023-10-28T20:48:05.426Z,5.43
2023-10-28T20:50:33.573Z,6.93
2023-10-28T20:53:01.288Z,8.48
2023-10-28T20:55:28.504Z,7.03
2023-10-28T20:57:55.614Z,5.13
2023-10-28T21:00:23.830Z,5.72
2023-10-28T21:02:51.204Z,4.65
2023-10-28T21:05:18.573Z,5.57
2023-10-28T21:07:45.873Z,8.32
2023-10-28T21:10:13.033Z,5.65
2023-10-28T21:12:40.357Z,6.15
2023-10-28T21:15:07.824Z,6.28
2023-10-28T21:17:35.727Z,7.82
2023-10-28T21:20:02.905Z,5.68
2023-10-28T21:22:30.082Z,8.20
2023-10-28T21:24:57.362Z,6.13
2023-10-28T21:27:24.764Z,6.03
2023-10-28T21:29:52.040Z,6.63
2023-10-28T21:32:19.545Z,4.38
2023-10-28T21:34:47.028Z,6.55
2023-10-28T21:37:14.282Z,5.60
2023-10-28T21:39:41.468Z,5.15
2023-10-28T21:42:08.633Z,5.57
2023-10-28T21:44:35.839Z,6.88
2023-10-28T21:47:03.076Z,5.22
2023-10-28T21:49:30.262Z,5.07
2023-10-28T21:51:57.495Z,5.75
2023-10-28T21:54:24.636Z,4.40
2023-10-28T21:56:51.920Z,7.10
2023-10-28T21:59:19.154Z,4.70
2023-10-28T22:01:47.630Z,6.35
2023-10-28T22:04:14.843Z,6.25
2023-10-28T22:06:42.020Z,4.20
2023-10-28T22:09:10.089Z,5.00
2023-10-28T22:11:38.932Z,6.40
2023-10-28T22:14:07.797Z,6.32
2023-10-28T22:16:35.029Z,7.00
2023-10-28T22:19:02.190Z,7.97
2023-10-28T22:21:29.384Z,8.43
2023-10-28T22:23:56.707Z,5.75
2023-10-28T22:26:24.008Z,6.60
2023-10-28T22:28:51.175Z,5.15
2023-10-28T22:31:18.367Z,6.53
2023-10-28T22:33:45.513Z,5.00
2023-10-28T22:36:12.606Z,5.90
2023-10-28T22:38:39.812Z,4.53
2023-10-28T22:41:07.464Z,4.18
2023-10-28T22:43:34.710Z,5.37
2023-10-28T22:46:01.825Z,3.87
2023-10-28T22:48:29.079Z,3.38
2023-10-28T22:50:56.323Z,5.97
2023-10-28T22:53:23.597Z,3.95
2023-10-28T22:55:50.792Z,4.55
2023-10-28T22:58:17.947Z,4.15
2023-10-28T23:00:45.251Z,3.83
2023-10-28T23:03:13.547Z,4.43
2023-10-28T23:05:40.905Z,5.20
2023-10-28T23:08:09.113Z,5.18
2023-10-28T23:10:36.349Z,4.35
2023-10-28T23:13:03.513Z,5.05
2023-10-28T23:15:30.666Z,3.50
2023-10-28T23:17:58.484Z,3.13
2023-10-28T23:20:28.168Z,3.78
2023-10-28T23:22:56.910Z,4.18
2023-10-28T23:25:24.150Z,3.05
2023-10-28T23:27:53.670Z,4.03
2023-10-28T23:30:24.154Z,3.33
2023-10-28T23:32:51.858Z,4.57
2023-10-28T23:35:19.201Z,4.65
2023-10-28T23:37:46.432Z,4.72
2023-10-28T23:40:13.666Z,4.10
2023-10-28T23:42:40.863Z,3.83
2023-10-28T23:45:08.657Z,3.53
2023-10-28T23:47:35.860Z,4.45
2023-10-28T23:50:04.480Z,3.85
2023-10-28T23:52:32.204Z,3.20
2023-10-28T23:54:59.914Z,3.47
2023-10-28T23:57:27.172Z,3.50
2023-10-28T23:59:54.467Z,2.50
